Terminal Aerodrome Forecast
Issued by NWS

Home | Current Version | Previous Version | Text Only | Print | Product List | Glossary On
Versions: 1 2 3 4 5 6 7 8 9 10 11 12 13 14 15 16 17 18 19 20 21 22 23 24 25 26 27 28 29 30
000
FTUS43 KDMX 222332
TAFMCW
TAF
KMCW 222332Z 2300/2324 17017G24KT P6SM FEW120
     FM230400 18011KT P6SM FEW240
     FM231700 18016G24KT P6SM SCT140=

USA.gov is the U.S. government's official web portal to all federal, state and local government web resources and services.